x

9410840 - Santa Monica Pier (icac1) Weather Station

11:54 - Fri 26th Aug 2016 All times are PDT. -7 hours from GMT.

  • Wind
    8mph, 9mph gusts
  • Sea Temp 69°f
  • Ar Temp 67°f
  • Sea Pressure 1015.6mb
  • 9410840 - Santa Monica Pier
  • 9410840 - Santa Monica Pier

More Historic Weather Station data

Upgrade to MSW Pro to gain access to the past 30 days of data for over 8000 Wavebouys and Weather Stations around the globe.

Join Pro

Comparision Forecast

View Surf forecast
   
Sex 08/26 11:54 8 9 mph 1015.6mb 69f 67f
11:48 9 11 mph 1015.6mb 69f 66f
11:42 10 11 mph 1015.6mb 69f 67f
11:36 10 11 mph 1015.6mb 69f 66f
11:30 9 11 mph 1015.6mb 69f 66f
11:24 9 11 mph 1015.7mb 69f 66f
11:18 10 11 mph 1015.7mb 69f 66f
11:12 9 11 mph 1015.7mb 69f 66f
11:06 10 13 mph 1015.7mb 69f 67f
11:00 11 13 mph 1015.7mb 69f 67f
10:54 11 13 mph 1015.7mb 69f 66f
10:48 10 14 mph 1015.7mb 69f 67f
10:42 9 10 mph 1015.7mb 69f 67f
10:36 8 10 mph 1015.6mb 69f 66f
10:30 10 11 mph 1015.7mb 69f 66f
10:24 10 11 mph 1015.7mb 69f 66f
10:18 9 11 mph 1015.7mb 69f 66f
10:12 9 10 mph 1015.7mb 69f 66f
10:06 9 11 mph 1015.7mb 69f 66f
10:00 10 11 mph 1015.7mb 69f 66f
9:54 10 11 mph 1015.6mb 69f 66f
9:48 10 13 mph 1015.6mb 69f 66f
9:42 10 11 mph 1015.5mb 69f 66f
9:36 10 13 mph 1015.5mb 69f 66f
9:30 10 11 mph 1015.4mb 69f 66f
9:24 9 11 mph 1015.4mb 68f 66f
9:18 9 10 mph 1015.3mb 68f 66f
9:12 9 10 mph 1015.3mb 68f 66f
9:06 9 11 mph 1015.2mb 69f 66f
9:00 9 11 mph 1015.1mb 69f 66f
8:54 9 11 mph 1015.1mb 69f 66f
8:48 9 11 mph 1015mb 69f 66f
8:42 9 10 mph 1014.9mb 69f 66f
8:36 9 10 mph 1014.9mb 69f 66f
8:30 9 10 mph 1014.9mb 69f 66f
8:24 3 6 mph 1014.9mb 69f 67f
8:18 6 7 mph 1014.8mb 69f 67f
8:12 6 7 mph 1014.8mb 69f 67f
8:06 3 5 mph 1014.8mb 69f 67f
8:00 5 6 mph 1014.7mb 69f 67f
7:54 3 6 mph 1014.6mb 69f 67f
7:48 6 7 mph 1014.5mb 69f 66f
7:42 3 6 mph 1014.4mb 69f 66f
7:36 5 6 mph 1014.4mb 69f 65f
7:30  -  mph 1014.4mb 69f 66f
7:24  -  2 mph 1014.3mb 69f 66f
7:18 2
mph
1014.2mb 69f 66f
7:12 1 3 mph 1014.2mb 69f 66f
7:06 1 2 mph 1014.2mb 69f 66f
7:00 2
mph
1014.2mb 69f 66f
6:54 1 2 mph 1014.1mb 69f 66f
6:48 2 3 mph - - -
6:42 2 3 mph 1014.1mb 69f 66f
6:36 2 3 mph 1014.1mb 68f 66f
6:30 2 3 mph 1014mb 68f 66f
6:24 3 5 mph 1014mb 68f 65f
6:18 3 5 mph 1013.9mb 68f 66f
6:12 3 5 mph 1013.8mb 68f 66f
6:06 2 3 mph 1013.8mb 68f 66f
6:00 2
mph
1013.8mb 68f 66f
5:54 2 3 mph 1013.8mb 68f 65f
5:48 2
mph
1013.7mb 68f 65f
5:42 2 3 mph 1013.6mb 68f 66f
5:36 2 3 mph 1013.6mb 68f 65f
5:30 2 3 mph 1013.5mb 68f 66f
5:24 2 3 mph 1013.4mb 68f 66f
5:18 2 3 mph 1013.4mb 68f 66f
5:12 3
mph
1013.4mb 68f 65f
5:06 3
mph
1013.4mb 68f 65f
5:00 2 3 mph 1013.4mb 68f 65f
4:54 3
mph
1013.4mb 69f 65f
4:48 3 5 mph 1013.4mb 69f 65f
4:42 3 5 mph 1013.4mb 69f 66f
4:36 3
mph
1013.3mb 68f 65f
4:30 3 5 mph 1013.3mb 68f 65f
4:24 3 5 mph 1013.3mb 68f 66f
4:18 3 5 mph 1013.3mb 68f 66f
4:12 3 5 mph 1013.3mb 68f 65f
4:06 3
mph
1013.4mb 68f 66f
4:00 3
mph
1013.4mb 68f 66f
3:54 2 3 mph 1013.3mb 68f 66f
3:48 3 5 mph 1013.3mb 68f 66f
3:42 3
mph
1013.2mb 68f 66f
3:36 3
mph
1013.2mb 68f 66f
3:30 2 3 mph 1013.2mb 68f 66f
3:24 2 3 mph 1013.1mb 68f 66f
3:18 2 3 mph 1013.1mb 68f 66f
3:12 2 3 mph 1013.1mb 68f 66f
3:06 3
mph
1013.2mb 68f 66f
3:00 2 3 mph 1013.1mb 68f 66f
2:54 2
mph
1013.2mb 68f 66f
2:48 2 3 mph 1013.2mb 68f 66f
2:42 2 3 mph 1013.2mb 68f 66f
2:36 2
mph
1013.1mb 68f 66f
2:30 2 3 mph 1013.1mb 68f 66f
2:24 2 3 mph 1013.1mb 67f 66f
2:18 2 3 mph 1013mb 67f 66f
2:12 3 5 mph 1013mb 67f 65f
2:06 3 5 mph 1013mb 67f 65f
2:00 3 5 mph 1013mb 67f 65f
1:54 5
mph
1013.1mb 67f 65f
1:48 5
mph
1013.1mb 67f 65f
1:42 3
mph
1013.2mb 67f 66f
1:36 2 3 mph 1013.3mb 67f 65f
1:30 2 3 mph 1013.3mb 67f 66f
1:24 3 5 mph 1013.3mb 67f 65f
1:18 3 6 mph 1013.3mb 67f 65f
1:12 3 5 mph 1013.3mb 67f 65f
1:06 2 3 mph 1013.4mb 67f 65f
1:00 2 3 mph 1013.4mb 67f 65f
12:54 3 5 mph 1013.4mb 67f 65f
12:48 3 5 mph 1013.3mb 67f 65f
12:42 2 3 mph 1013.4mb 67f 65f
12:36 2 3 mph 1013.4mb 67f 65f
12:30 1 3 mph 1013.4mb 67f 65f
12:24 1 3 mph 1013.4mb 67f 65f
12:18 2 3 mph 1013.4mb 67f 65f
12:12 3
mph
1013.5mb 67f 65f
12:06 3
mph
1013.5mb 67f 65f
12:00 3 5 mph 1013.6mb 67f 65f
Qui 08/25 11:54 3 5 mph 1013.6mb 68f 65f
11:48 5 6 mph 1013.6mb 68f 65f
11:42 5 6 mph 1013.6mb 68f -
11:36 5 6 mph 1013.5mb 68f -
11:30 6 7 mph 1013.5mb 68f 64f
11:24 6
mph
1013.5mb 68f 64f
11:18 6
mph
1013.5mb 68f 64f
11:12 6 7 mph 1013.5mb 68f 64f
11:06 6 8 mph 1013.5mb 68f 64f
11:00 7 8 mph 1013.5mb 68f 64f
10:54 8 9 mph 1013.5mb 68f 64f
10:48 8 9 mph 1013.5mb 68f 64f
10:42 8 9 mph 1013.5mb 68f -
10:36 8 9 mph 1013.5mb 69f -
10:30 8 9 mph 1013.5mb 69f 64f
10:24 8 9 mph 1013.5mb 69f 64f
10:18 8 9 mph 1013.5mb 69f 64f
10:12 6 8 mph 1013.6mb 69f 64f
10:06 6 8 mph 1013.5mb 69f 65f
10:00 5 6 mph 1013.5mb 69f 65f
9:54 5 6 mph 1013.4mb 69f 65f
9:48 6
mph
1013.3mb 69f 65f
9:42 5 6 mph 1013.2mb 69f 65f
9:36 6 7 mph 1013.2mb 69f 64f
9:30 6 8 mph 1013.2mb 69f 64f
9:24 6 7 mph 1013.2mb 69f 64f
9:18 6
mph
1013.2mb 69f 64f
9:12 6 7 mph 1013.1mb 69f 64f
9:06 6 7 mph 1013.1mb 69f 64f
9:00 7 8 mph 1013.1mb 69f 64f
8:54 7 9 mph 1013mb 69f 64f
8:48 8
mph
- - -
8:42 7 9 mph 1013mb 69f 65f
8:36 7 8 mph 1013mb 69f 65f
8:30 8 9 mph 1012.9mb 69f 65f
8:24 8 9 mph 1012.8mb 69f 65f
8:18 9 10 mph 1012.8mb 69f 64f
8:12 10 11 mph 1012.7mb 69f 65f
8:06 10 11 mph 1012.7mb 69f 65f
8:00 10
mph
1012.6mb 69f 65f
7:54 10 11 mph 1012.5mb 69f 65f
7:48 10 11 mph 1012.5mb 69f 64f
7:42 9 10 mph 1012.5mb 69f 65f
7:36 9 10 mph 1012.5mb 69f 65f
7:30 9 10 mph 1012.5mb 69f 65f
7:24 9 10 mph 1012.5mb 69f 65f
7:18  -  mph 1012.6mb 69f 65f
7:12  -  mph 1012.6mb 69f 65f
7:06  -  mph 1012.5mb 69f 65f
7:00  -  mph 1012.5mb 69f 65f
6:54  -  mph 1012.5mb 69f 65f
6:48  -  mph 1012.4mb 69f 65f
6:42  -  mph 1012.4mb 69f 65f
6:36  -  mph 1012.4mb 69f 65f
6:30 8 9 mph 1012.4mb 69f 65f
6:24 8 9 mph 1012.4mb 69f 65f
6:18 9
mph
1012.4mb 69f 65f
6:12  -  mph 1012.5mb 69f 66f
6:06  -  mph 1012.4mb 69f 66f
6:00 7 9 mph 1012.4mb 69f 66f
5:54 8 9 mph 1012.4mb 69f 66f
5:48 8 9 mph 1012.4mb 69f 66f
5:42  -  mph 1012.4mb 68f 66f
5:36  -  mph 1012.4mb 68f 66f
5:30 8 9 mph 1012.4mb 68f 66f
5:24 8 9 mph 1012.5mb 68f 66f
5:18 8 9 mph 1012.5mb 68f 66f
5:12  -  mph 1012.6mb 68f 66f
5:06  -  mph 1012.5mb 68f 66f
5:00  -  mph 1012.6mb 68f 66f
4:54  -  mph 1012.7mb 68f 66f
4:48  -  mph 1012.6mb 68f 66f
4:42 7 9 mph 1012.6mb 68f -
4:36 8
mph
1012.6mb 68f -
4:30 7 8 mph 1012.6mb 69f 66f
4:24 7 8 mph 1012.6mb 69f 66f
4:18 8 9 mph 1012.7mb 69f 66f
4:12  -  mph 1012.7mb 69f 66f
4:06  -  mph 1012.8mb 68f 66f
4:00  -  mph 1012.8mb 68f 66f
3:54  -  mph 1012.9mb 69f 66f
3:48  -  mph 1012.9mb 68f 66f
3:42  -  mph - 68f -
3:36  -  mph - 68f -
3:30 9 10 mph 1012.9mb 68f 66f
3:24 8 10 mph 1013mb 68f 66f
3:18 9 10 mph 1013mb 68f 66f
3:12  -  mph 1013.1mb 68f 66f
3:06  -  mph 1013.1mb 68f 66f
3:00 9 10 mph 1013.2mb 68f 66f
2:54 10 11 mph 1013.2mb 68f 66f
2:48 10 11 mph - - -
2:42 9 11 mph 1013.3mb 68f 67f
2:36 10 11 mph 1013.3mb 68f 67f
2:30 10 11 mph 1013.4mb 68f 67f
2:24 10
mph
1013.4mb 68f 66f
2:18 10 13 mph 1013.4mb 68f 66f
2:12 11 13 mph 1013.4mb 68f 67f
2:06 10 11 mph 1013.5mb 68f 66f
2:00 10 11 mph 1013.6mb 68f 66f
1:54 10 11 mph 1013.6mb 68f 66f
1:48 10 11 mph 1013.7mb 68f 66f
1:42 11 13 mph 1013.8mb 68f 66f
1:36 11 13 mph 1013.8mb 68f 67f
1:30 11 13 mph 1013.9mb 68f 66f
1:24 10 11 mph 1013.9mb 68f 66f
1:18 10 11 mph 1013.9mb 68f 67f
1:12 10 11 mph 1014mb 68f 66f
1:06 9 10 mph 1014.1mb 68f 67f
1:00 10
mph
1014.1mb 68f 66f
12:54 10 11 mph 1014.1mb 68f 66f
12:48 9 10 mph 1014.1mb 68f 67f
12:42 10 11 mph 1014.2mb 68f 66f
12:36 9 10 mph 1014.3mb 68f 66f
12:30 9 10 mph 1014.3mb 68f 66f
12:24 9 10 mph 1014.3mb 68f 66f
12:18 9
mph
1014.3mb 68f 66f
12:12 8 9 mph 1014.4mb 68f 66f
12:06 7 8 mph 1014.4mb 68f 66f
12:00 7 8 mph 1014.5mb 68f 66f
11:54 7 8 mph 1014.4mb 68f 66f
11:48 7
mph
1014.4mb 68f 66f
11:42 6 7 mph 1014.4mb 68f 66f
11:36 6 7 mph 1014.5mb 68f 66f
11:30 6 7 mph 1014.6mb 68f 66f
11:24 6 7 mph 1014.6mb 68f 66f
11:18 6 7 mph 1014.6mb 68f 66f
11:12 6 7 mph 1014.7mb 68f 66f
11:06 6 7 mph 1014.7mb 68f 66f
11:00 6 8 mph 1014.8mb 68f 66f
10:54 7 8 mph 1014.9mb 68f 66f
10:48 7 8 mph 1015mb 68f 66f
10:42 7 8 mph 1015mb 68f 66f
10:36 7
mph
1015.1mb 68f 66f
10:30 7
mph
1015.2mb 68f 66f
10:24 7
mph
1015.2mb 68f 66f
10:18 7 8 mph 1015.1mb 68f 66f
10:12 7
mph
1015.1mb 68f 66f
10:06 6 7 mph 1015.1mb 68f 66f
10:00 6
mph
1015.1mb 68f 66f
9:54 5 6 mph 1015.1mb 68f 66f
9:48 5 6 mph 1015.1mb 68f 66f
9:42 5 6 mph 1015.1mb 68f 66f
9:36 5 6 mph 1015.1mb 68f 66f
9:30 5 6 mph 1015.1mb 68f 66f
9:24 5 6 mph 1015.1mb 68f 66f
9:18 5
mph
1015mb 68f 66f
9:12 3 5 mph 1015mb 68f 66f
9:06 3 5 mph 1015mb 68f 66f
9:00 3
mph
1015mb 68f 66f
8:54 3
mph
1015mb 68f 66f
8:48 2
mph
1015mb 68f 67f
8:42 1 2 mph 1015mb 68f 68f
8:36  -  1 mph 1015mb 68f 68f
8:30  -  1 mph 1015mb 68f 68f
8:24  -  1 mph 1015mb 68f 68f
8:18  -  1 mph 1014.9mb 68f 69f
8:12  -  1 mph 1014.9mb 68f 68f
8:06  -  1 mph 1014.8mb 68f 67f
8:00 1 2 mph 1014.8mb 68f 67f
7:54 1 3 mph 1014.8mb 68f 66f
7:48 2 3 mph 1014.8mb 68f 66f
7:42 3
mph
1014.8mb 68f 66f
7:36 3 5 mph 1014.7mb 68f 66f
7:30 3
mph
1014.7mb 68f 65f
7:24 3
mph
1014.7mb 68f 64f
7:18 2 3 mph 1014.7mb 68f 64f
7:12 2
mph
1014.7mb 68f 64f
7:06 2 3 mph 1014.6mb 68f 64f
7:00 2 3 mph 1014.7mb 68f 64f
6:54 2 3 mph 1014.6mb 68f 64f
6:48 2
mph
1014.6mb 68f 64f
6:42 1 2 mph 1014.5mb 67f 64f
6:36 1 2 mph 1014.5mb 68f 63f
6:30 2
mph
1014.5mb 68f 64f
6:24 1
mph
1014.4mb 68f 64f
6:18  -  1 mph 1014.4mb 68f 63f
6:12 1 2 mph 1014.3mb 68f 63f
6:06 1 3 mph 1014.2mb 68f 63f
6:00 2 3 mph 1014.2mb 68f 63f
5:54 2 3 mph 1014.2mb 68f 63f
5:48 3
mph
1014.1mb 68f 62f
5:42 2 3 mph 1014.1mb 68f 63f
5:36 3
mph
1014.1mb 68f 63f
5:30 2 3 mph 1014mb 68f 63f
5:24 2 3 mph 1014mb 68f 63f
5:18  -  2 mph 1014mb 68f 63f
5:12 1
mph
1014mb 68f 63f
5:06 1 2 mph 1013.9mb 68f 64f
5:00  -  mph 1013.9mb 67f 64f
4:54  -  2 mph 1013.9mb 67f 64f
4:48 1 2 mph 1014mb 67f 64f
4:42 1 2 mph 1014mb 67f 64f
4:36 1 2 mph 1013.9mb 67f 63f
4:30 1 2 mph 1013.8mb 67f 63f
4:24 1 2 mph 1013.8mb 66f 63f
4:18  -  1 mph 1013.7mb 66f 63f
4:12  -  2 mph 1013.7mb 66f 63f
4:06  -  1 mph 1013.7mb 65f 63f
4:00  -  2 mph 1013.7mb 65f 64f
3:54 2 3 mph 1013.7mb 65f 64f
3:48 2 3 mph 1013.8mb 65f 63f
3:42 2
mph
1013.9mb 65f 63f
3:36 2
mph
1013.8mb 65f 63f
3:30 2
mph
1013.8mb 65f 63f
3:24 2 3 mph 1013.8mb 65f 63f
3:18 2 3 mph 1013.8mb 65f 63f
3:12 2 3 mph 1013.9mb 65f 63f
3:06 3
mph
1014mb 65f 63f
3:00 3 5 mph 1014mb 65f 62f
2:54 2 3 mph 1014mb 65f 62f
2:48 1 2 mph 1014mb 64f 63f
2:42 2
mph
1014mb 64f 63f
2:36  -  2 mph 1014mb 65f 63f
2:30 1 2 mph 1014mb 65f 64f
2:24  -  1 mph 1014mb 64f 64f
2:18  -  1 mph 1014.1mb 65f 64f
2:12  -  1 mph 1014.1mb 64f 64f
2:06  -  1 mph 1014.1mb 65f 64f
2:00  -  1 mph 1014.1mb 65f 64f
1:54 1
mph
1014.1mb 65f 64f
1:48  -  1 mph 1014.2mb 65f 64f
1:42 1
mph
1014.2mb 65f 64f
1:36  -  1 mph 1014.2mb 65f 64f
1:30  -  mph 1014.2mb 65f 63f
1:24  -  1 mph 1014.3mb 65f 64f
1:18  -  1 mph 1014.4mb 65f 64f
1:12 1 2 mph 1014.4mb 65f 64f
1:06 1 2 mph 1014.4mb 65f 64f
1:00 1 2 mph 1014.5mb 65f 64f
12:54 2
mph
1014.5mb 65f 64f
12:48 2
mph
1014.5mb 65f 64f
12:42 1 2 mph 1014.5mb 64f 64f
12:36 2
mph
1014.6mb 64f 64f
12:30 1 2 mph 1014.6mb 64f 64f
12:24 1
mph
1014.6mb 64f 64f
12:18  -  1 mph 1014.6mb 65f 64f
12:12  -  1 mph 1014.6mb 65f 64f
12:06  -  1 mph 1014.6mb 65f 64f
12:00  -  1 mph 1014.6mb 65f 64f
Qua 08/24 11:54 1
mph
1014.6mb 65f 64f
11:48 1 2 mph 1014.6mb 66f 64f
11:42 1 2 mph 1014.6mb 65f -
11:36  -  2 mph 1014.7mb 66f -
11:30 1 2 mph 1014.6mb 66f 64f
11:24 1 2 mph 1014.6mb 66f 64f
11:18 2 3 mph 1014.7mb 66f 64f
11:12 2 5 mph 1014.7mb 67f 64f
11:06 3 5 mph 1014.7mb 67f 64f
11:00 3
mph
1014.7mb 67f 64f
10:54 2
mph
1014.6mb 67f 64f
10:48 2
mph
- - -
10:42 2
mph
1014.7mb 67f 64f
10:36 2
mph
1014.7mb 67f 64f
10:30 2 3 mph 1014.8mb 68f 64f
10:24 2
mph
1014.8mb 68f 64f
10:18 1 2 mph 1014.7mb 68f 64f
10:12 1 2 mph 1014.6mb 68f 64f
10:06 1
mph
1014.6mb 68f 64f
10:00  -  mph 1014.6mb 68f 64f
9:54  -  2 mph 1014.6mb 68f 64f
9:48 1 2 mph 1014.6mb 68f 64f
9:42 1 2 mph 1014.6mb 68f 64f
9:36 1 2 mph 1014.6mb 68f 64f
9:30  -  2 mph 1014.5mb 68f 64f
9:24 2 3 mph 1014.5mb 68f 64f
9:18 2 3 mph 1014.5mb 68f 64f
9:12 2 3 mph 1014.5mb 68f 64f
9:06 2 5 mph 1014.5mb 68f 64f
9:00 3 5 mph 1014.4mb 68f 64f
8:54 5 6 mph 1014.4mb 68f 64f
8:48 6 7 mph - - -
8:42 6 7 mph 1014.4mb 68f 64f
8:36 6 7 mph 1014.4mb 68f 64f
8:30 7 8 mph 1014.3mb 68f 64f
8:24 7 8 mph 1014.2mb 68f 64f
8:18 7 8 mph 1014.1mb 68f 64f
8:12 8 9 mph 1014.1mb 68f 64f
8:06 9
mph
1014mb 68f 64f
8:00 7 8 mph 1014mb 68f 64f
7:54 8 9 mph 1013.9mb 68f 64f
7:48 9
mph
1013.9mb 68f 64f
7:42 8
mph
1013.9mb 68f 64f
7:36 8 9 mph 1013.9mb 68f 64f
7:30 7 9 mph 1013.9mb 68f 64f
7:24 8 9 mph 1013.9mb 68f 64f
7:18  -  mph 1013.8mb - -
7:12  -  mph 1013.8mb 68f 65f
7:06  -  mph 1013.8mb 68f 65f
7:00  -  mph 1013.8mb 68f 65f
6:54  -  mph 1013.7mb 69f 65f
6:48  -  mph - 68f 66f
6:42  -  mph - 68f 66f
6:36  -  mph - 68f 66f
6:30 8 10 mph - 69f 66f
6:24 9 11 mph - 69f 66f
6:18 9 10 mph - 69f 66f
6:12  -  mph 1013.6mb 69f 66f
6:06  -  mph 1013.6mb 69f 66f
6:00 11 14 mph 1013.6mb 69f 66f
5:54 11 14 mph 1013.7mb 69f 66f
5:48 13 14 mph - - -
5:42 11 14 mph - 69f 66f
5:36 13 15 mph - 69f 66f
5:30 14 15 mph 1013.9mb 69f 66f
5:24 13 16 mph 1013.9mb 69f 66f
5:18 14 16 mph 1013.9mb 69f 67f
5:12  -  mph - 69f 67f
5:06  -  mph - 69f 67f
5:00 15 16 mph 1014mb 69f 66f
4:54 14 15 mph 1014.1mb 68f 66f
4:48  -  mph 1014.1mb - -
4:42  -  mph 1014.2mb 68f -
4:36  -  mph 1014.2mb 68f -
4:30 11 15 mph 1014.2mb 68f 66f
4:24 14 15 mph 1014.3mb 68f 66f
4:18  -  mph 1014.3mb - -
4:12  -  mph 1014.4mb 68f 66f
4:06  -  mph 1014.5mb 68f 66f
4:00  -  mph 1014.6mb 68f 66f
3:54  -  mph 1014.6mb 68f 66f
3:48  -  mph 1014.6mb 68f 66f
3:42  -  mph - 68f -
3:36  -  mph - 68f -
3:30 13 14 mph 1014.9mb 68f 66f
3:24 11 13 mph 1014.9mb 68f 67f
3:18 11 14 mph 1015.1mb 68f 66f
3:12  -  mph 1015.1mb 68f 66f
3:06  -  mph 1015.2mb 68f 66f
3:00 10 13 mph 1015.3mb 68f 66f
2:54 10 11 mph 1015.3mb 68f 66f
2:48 10 11 mph 1015.3mb 68f 66f
2:42  -  mph - 68f 66f
2:36  -  mph - 68f 66f
2:30 11 13 mph 1015.5mb 68f 66f
2:24 11 13 mph 1015.6mb 68f 66f
2:18 10 13 mph 1015.7mb 68f 66f
2:12 10 11 mph 1015.8mb 68f 66f
2:06 11
mph
1015.9mb 68f 66f
2:00 10 11 mph 1015.9mb 68f 66f
1:54 9 11 mph 1016mb 68f 66f
1:48 9 11 mph 1016mb 68f 66f
1:42 10 11 mph 1016.1mb 68f 66f
1:36 10 11 mph 1016.1mb 68f 66f
1:30 9 11 mph 1016.1mb 68f 66f
1:24 9 10 mph 1016.2mb 68f 66f
1:18 10 11 mph 1016.2mb 68f 66f
1:12 9 11 mph 1016.2mb 68f 66f
1:06 10 11 mph 1016.3mb 68f 66f
1:00 10
mph
1016.3mb 68f 66f
12:54 9 11 mph 1016.4mb 68f 66f
12:48 10
mph
1016.4mb 68f 66f
12:42 9 10 mph 1016.4mb 68f 66f
12:36 9 10 mph 1016.5mb 68f 66f
12:30 9 11 mph 1016.6mb 68f 66f
12:24 10 11 mph 1016.6mb 68f 66f
12:18 10 11 mph 1016.7mb 67f 66f
12:12 9 11 mph 1016.7mb 67f 67f
12:06 9 10 mph 1016.7mb 67f 66f
12:00 9
mph
1016.9mb 66f 66f
11:54 8 9 mph 1016.9mb 65f 66f
11:48 7 9 mph 1017mb 65f 67f
11:42 8 9 mph 1017.1mb 64f 66f
11:36 8
mph
1017.2mb 64f 66f
11:30 6 7 mph 1017.2mb 64f 67f
11:24 6
mph
1017.3mb 64f 67f
11:18 6 7 mph 1017.3mb 64f 66f
11:12 7 8 mph 1017.4mb 64f 67f
11:06 7 8 mph 1017.4mb 64f 66f
11:00 7
mph
1017.5mb 65f 66f
10:54 6 7 mph 1017.6mb 65f 67f
10:48 6 7 mph 1017.7mb 65f 66f
10:42 6 7 mph 1017.7mb 66f 66f
10:36 6 7 mph 1017.6mb 66f 66f
10:30 6 7 mph 1017.6mb 66f 67f
10:24 6
mph
1017.6mb 67f 66f
10:18 6
mph
1017.7mb 67f 66f
10:12 6
mph
1017.7mb 67f 66f
10:06 5 6 mph 1017.7mb 67f 66f
10:00 5 6 mph 1017.7mb 67f 67f
9:54 5 6 mph 1017.7mb 66f 67f
9:48 3 5 mph 1017.7mb 66f 67f
9:42 3
mph
1017.7mb 66f 67f
9:36 2
mph
1017.7mb 66f 67f
9:30 2
mph
1017.7mb 66f 67f
9:24 1
mph
1017.7mb 66f 67f
9:18 1
mph
1017.6mb 66f 67f
9:12 1
mph
1017.6mb 66f 67f
9:06 1
mph
1017.6mb 66f 67f
9:00 1
mph
1017.6mb 66f 67f
8:54 1 2 mph 1017.6mb 66f 67f
8:48 1
mph
1017.5mb 66f 68f
8:42 1
mph
1017.5mb 66f 68f
8:36  -  1 mph 1017.5mb 66f 69f
8:30  -  mph 1017.5mb 66f 70f
8:24  -  1 mph 1017.4mb 66f 69f
8:18  -  1 mph 1017.4mb 66f 68f
8:12 1
mph
1017.4mb 66f 68f
8:06  -  1 mph 1017.5mb 66f 68f
8:00 1 2 mph 1017.5mb 66f 67f
7:54 2
mph
1017.5mb 66f 67f
7:48 2
mph
1017.4mb 66f 67f
7:42 2
mph
1017.4mb 66f 67f
7:36 1
mph
1017.3mb 66f 67f
7:30 1
mph
1017.2mb 66f 67f
7:24 1
mph
1017.1mb 66f 67f
7:18  -  1 mph 1017.1mb 66f 67f
7:12  -  1 mph 1017.1mb 66f 67f
7:06  -  1 mph 1017.1mb 66f 66f
7:00 1 2 mph 1017mb 67f 65f
6:54 2
mph
1017mb 66f 65f
6:48 2
mph
1016.9mb 66f 64f
6:42 2
mph
1016.9mb 67f 64f
6:36 1 2 mph 1016.8mb 67f 64f
6:30  -  1 mph 1016.8mb 67f 64f
6:24  -  1 mph 1016.8mb 67f 64f
6:18  -  mph 1016.8mb 67f 64f
6:12  -  2 mph 1016.7mb 66f 64f
6:06 1 2 mph 1016.7mb 66f 65f
6:00  -  1 mph 1016.7mb 67f 65f
5:54 1 2 mph 1016.6mb 66f 65f
5:48  -  mph 1016.6mb 66f 65f
5:42  -  1 mph 1016.6mb 67f 65f
5:36  -  1 mph 1016.6mb 66f 65f
5:30  -  1 mph 1016.6mb 66f 65f
5:24  -  1 mph 1016.6mb 67f 65f
5:18 1
mph
1016.5mb 67f 65f
5:12 2
mph
1016.5mb 67f 65f
5:06 1 2 mph 1016.4mb 67f 65f
5:00 2
mph
1016.5mb 67f 65f
4:54 1 2 mph 1016.5mb 66f 65f
4:48 2
mph
1016.4mb 66f 65f
4:42 1
mph
1016.4mb 66f 65f
4:36 1 2 mph 1016.4mb 66f 65f
4:30 2 5 mph 1016.4mb 66f 65f
4:24 3 5 mph 1016.4mb 66f 65f
4:18 3 5 mph 1016.4mb 66f 65f
4:12 3
mph
1016.4mb 66f 65f
4:06 3
mph
1016.4mb 66f 66f
4:00 2 3 mph 1016.5mb 66f 65f
3:54 2
mph
1016.5mb 66f 66f
3:48 3
mph
1016.5mb 66f 65f
3:42 3
mph
1016.5mb 66f 65f
3:36 2 3 mph 1016.5mb 66f 66f
3:30 2 3 mph 1016.5mb 66f 66f
3:24 3
mph
1016.4mb 65f 66f
3:18 3
mph
1016.4mb 65f 66f
3:12 2
mph
1016.5mb 65f 66f
3:06 1
mph
1016.5mb 65f 66f
3:00 2 3 mph 1016.5mb 65f 66f
2:54 3 5 mph 1016.5mb 65f 66f
2:48 3 5 mph 1016.5mb 65f 66f
2:42 2 5 mph 1016.5mb 64f 66f
2:36 5
mph
1016.6mb 64f 66f
2:30 3 6 mph 1016.5mb 64f 66f
2:24 5 6 mph 1016.6mb 64f 66f
2:18 3
mph
1016.5mb 64f 66f
2:12 2
mph
1016.5mb 64f 65f
2:06 1 2 mph 1016.5mb 64f 65f
2:00  -  1 mph 1016.5mb 64f 65f
1:54  -  1 mph 1016.6mb 64f 64f
1:48  -  mph 1016.6mb 64f 64f
1:42  -  1 mph 1016.7mb 64f 64f
1:36 2
mph
1016.7mb 63f 65f
1:30 2 3 mph 1016.8mb 63f 64f
1:24 2 3 mph 1016.8mb 63f 65f
1:18 3
mph
1016.8mb 63f 65f
1:12 3 5 mph 1016.8mb 63f 65f
1:06 3
mph
1016.7mb 64f 65f
1:00 2 3 mph 1016.7mb 64f 65f
12:54 2 3 mph 1016.8mb 64f 65f
12:48 2 3 mph 1016.8mb 64f 65f
12:42 3
mph
1016.9mb 64f 64f
12:36 3
mph
1016.9mb 65f 64f
12:30 3 5 mph 1016.8mb 65f 64f
12:24 3 5 mph 1016.8mb 65f 64f
12:18 5 6 mph 1016.8mb 65f 64f
12:12 5 6 mph 1016.8mb 65f 65f
12:06 5 6 mph 1016.8mb 65f 65f
12:00 5 6 mph 1016.8mb 65f 65f
Ter 08/23 11:54 5 6 mph 1016.9mb 65f 65f
11:48 5 6 mph 1016.9mb 65f 64f
11:42 6
mph
1016.9mb 65f -
11:36 6
mph
1016.9mb 65f -
11:30 6
mph
1017mb 65f 65f
11:24 6 7 mph 1016.9mb 65f 65f
11:18 7
mph
1016.9mb 65f 65f
11:12 6 7 mph 1016.9mb 65f 65f
11:06 6 7 mph 1017mb 65f 65f
11:00 6 7 mph 1017mb 65f 65f
10:54 6
mph
1017mb 65f 65f
10:48 6
mph
1017.1mb 65f 65f
10:42 5
mph
1017.1mb 65f 65f
10:36 5 6 mph 1017.1mb 66f 65f
10:30 5 6 mph 1017.1mb 66f 65f
10:24 5
mph
1017mb 66f 65f
10:18 5
mph
1017mb 66f 65f
10:12 5
mph
1017mb 66f 65f
10:06 3 5 mph 1017mb 66f 65f
10:00 3 5 mph 1017mb 66f 65f
9:54 3 5 mph 1017mb 66f 65f
9:48 3 5 mph 1016.8mb 66f 65f
9:42 5
mph
1016.8mb 66f 65f
9:36 3
mph
1016.8mb 66f 65f
9:30 2 3 mph 1016.8mb 66f 65f
9:24 3 5 mph 1016.8mb 66f 65f
9:18 5
mph
1016.7mb 67f 65f
9:12 5 6 mph 1016.7mb - 65f
9:06 5
mph
1016.6mb - 65f
9:00 3 5 mph 1016.5mb 66f 65f
8:54 3 5 mph 1016.4mb 66f 65f
8:48 3
mph
1016.3mb 66f 65f
8:42 3 5 mph 1016.3mb 66f 65f
8:36 5 6 mph 1016.1mb 66f 65f
8:30 5 6 mph 1016.1mb 67f 65f
8:24 6 7 mph 1016mb 67f 65f
8:18 6 7 mph 1016mb 67f 65f
8:12 7 8 mph 1016mb 67f 65f
8:06 6 7 mph 1015.9mb 67f 65f
8:00 6 7 mph 1015.9mb 67f 65f
7:54 8
mph
1015.9mb 67f 65f
7:48 6 8 mph 1015.8mb 67f 65f
7:42 7 8 mph 1015.8mb 67f 65f
7:36 7 9 mph 1015.7mb 67f 65f
7:30 7 8 mph 1015.7mb 67f 66f
7:24 6 8 mph 1015.7mb 67f 66f
7:18 6 8 mph 1015.7mb 67f 66f
7:12 7 8 mph 1015.7mb 67f 66f
7:06 7 8 mph 1015.7mb 67f 66f
7:00 7 8 mph 1015.6mb 67f 66f
6:54 7 8 mph 1015.6mb 67f 66f
6:48 7 9 mph - - -
6:42 7 8 mph 1015.5mb 67f 67f
6:36 6 7 mph 1015.5mb 67f 67f
6:30 7 8 mph 1015.5mb 67f 67f
6:24 6 7 mph 1015.5mb 68f 67f
6:18  -  mph 1015.5mb 68f 67f
6:12  -  mph 1015.5mb 68f 67f
6:06  -  mph 1015.5mb 68f 67f
6:00  -  mph 1015.5mb 68f 67f
5:54  -  mph 1015.5mb 68f 68f
5:48 3 5 mph 1015.5mb - -
5:42 3
mph
1015.6mb 68f 68f
5:36 3 5 mph 1015.7mb 67f 68f
5:30  -  mph 1015.7mb 67f 68f
5:24  -  mph 1015.7mb 67f 68f
5:18  -  mph 1015.8mb 67f 67f
5:12  -  mph 1015.8mb 67f 67f
5:06  -  mph 1015.9mb 67f 67f
5:00 8
mph
1015.9mb 67f 67f
4:54 8 10 mph 1015.9mb 67f 67f
4:48 9 11 mph - - -
4:42 8 10 mph - 67f -
4:36 7 8 mph - 67f -
4:30 7 8 mph 1016mb 68f 68f
4:24 7 8 mph 1016mb 67f 68f
4:18 7 8 mph 1016mb 67f 68f
4:12  -  mph 1016.1mb 67f 68f
4:06  -  mph 1016.1mb 67f 68f
4:00 8 9 mph 1016.1mb 67f 67f
3:54 8
mph
1016.2mb 67f 67f
3:48 8
mph
1016.3mb 67f 68f
3:42  -  mph - 67f 67f
3:36  -  mph - 67f 67f
3:30 9 10 mph 1016.3mb 67f 67f
3:24 9 10 mph 1016.4mb 67f 67f
3:18 9 10 mph - - -
3:12 9 10 mph 1016.6mb 67f 68f
3:06 9 10 mph 1016.6mb 67f 68f
3:00  -  mph 1016.7mb 66f 68f
2:54  -  mph 1016.6mb 66f 68f
2:48 9 10 mph - - -
2:42 9 10 mph - 66f 68f
2:36 9 10 mph - 66f 68f
2:30 10 11 mph 1016.8mb 66f 68f
2:24 9 10 mph 1016.9mb 66f 68f
2:18 10
mph
1017mb 66f 68f
2:12 10
mph
1017mb 66f 68f
2:06 8 10 mph 1017mb 66f 68f
2:00 10
mph
1017mb 67f 68f
1:54 9 10 mph 1017.1mb 67f 68f
1:48 8 10 mph 1017.1mb 67f 68f
1:42 7 8 mph 1017.2mb 67f 68f
1:36 7 8 mph 1017.3mb 67f 68f
1:30 8 9 mph 1017.4mb 67f 68f
1:24 8 9 mph 1017.4mb 67f 68f
1:18 7 8 mph 1017.5mb 67f 68f
1:12 8 9 mph 1017.5mb 67f 68f
1:06 7 8 mph 1017.6mb 67f 68f
1:00 8
mph
1017.5mb 67f 68f
12:54 7 8 mph 1017.5mb 67f 68f
12:48 7 8 mph 1017.6mb 67f 68f
12:42 7
mph
1017.6mb 67f 68f
12:36 6 7 mph 1017.5mb 67f 68f
12:30 7 8 mph 1017.5mb 67f 68f
12:24 7 8 mph 1017.5mb 67f 68f
12:18 7 8 mph 1017.5mb 67f 67f
12:12 7 8 mph 1017.6mb 66f 68f
12:06 7 8 mph 1017.6mb 66f 67f
12:00 6 8 mph 1017.6mb 66f 67f
11:54 7 8 mph 1017.6mb 65f 67f
11:48 7 8 mph 1017.6mb 65f 67f
11:42 6 7 mph 1017.7mb 65f 67f
11:36 6 7 mph 1017.7mb 64f 67f
11:30 6 7 mph 1017.7mb 64f 67f
11:24 6
mph
1017.7mb 64f 67f
11:18 5 6 mph 1017.8mb 64f 67f
11:12 5 6 mph 1017.7mb 64f 67f
11:06 5
mph
1017.7mb 65f 67f
11:00 3 5 mph 1017.8mb 65f 67f
10:54 3 5 mph 1017.8mb 65f 67f
10:48 3 5 mph 1017.8mb 65f 67f
10:42 3 5 mph 1017.8mb 65f 67f
10:36 3
mph
1017.8mb 65f 67f
10:30 3
mph
1017.7mb 65f 67f
10:24 3
mph
1017.7mb 65f 67f
10:18 3 5 mph 1017.7mb 66f 67f
10:12 3 5 mph 1017.7mb 66f 67f
10:06 5
mph
1017.7mb 65f 67f
10:00 5
mph
1017.7mb 65f 67f
9:54 5
mph
1017.6mb 65f 67f
9:48 3 5 mph 1017.5mb 65f 67f
9:42 3
mph
1017.5mb 65f 67f
9:36 3 5 mph 1017.4mb 65f 67f
9:30 5
mph
1017.3mb 65f 66f
9:24 5
mph
1017.3mb 65f 66f
9:18 3
mph
1017.2mb 65f 66f
9:12 3
mph
1017.1mb 66f 66f
9:06 2 3 mph 1017.1mb 66f 67f
9:00 2 3 mph 1017.1mb 66f 67f
8:54 2
mph
1017.1mb 66f 67f
8:48 2
mph
1017mb 66f 67f
8:42 2
mph
1016.9mb 66f 67f
8:36 2
mph
1016.9mb 66f 67f
8:30 2 3 mph 1016.9mb 66f 67f
8:24 2
mph
1016.8mb 66f 67f
8:18 2
mph
1016.7mb 66f 67f
8:12 2
mph
1016.6mb 66f 67f
8:06 2
mph
1016.5mb 66f 67f
8:00 1 2 mph 1016.4mb 66f 67f
7:54 2
mph
1016.3mb 66f 67f
7:48 1 2 mph 1016.3mb 66f 67f
7:42 1
mph
1016.2mb 66f 68f
7:36  -  1 mph 1016.2mb 66f 69f
7:30  -  1 mph 1016.1mb 66f 69f
7:24  -  1 mph 1016mb 66f 68f
7:18  -  1 mph 1015.9mb 66f 68f
7:12  -  1 mph 1015.9mb 66f 67f
7:06  -  1 mph 1015.8mb 66f 67f
7:00  -  1 mph 1015.8mb 66f 66f
6:54 2
mph
1015.8mb 66f 65f
6:48 2
mph
1015.7mb 66f 65f
6:42 2 3 mph 1015.7mb 66f 65f
6:36 2 3 mph 1015.6mb 66f 65f
6:30 2 3 mph 1015.6mb 65f 65f
6:24 2 3 mph 1015.5mb 65f 65f
6:18 2
mph
1015.4mb 65f 65f
6:12 2 3 mph 1015.4mb 65f 65f
6:06 3 5 mph 1015.4mb 65f 65f
6:00 3 5 mph 1015.3mb 65f 65f
5:54 3
mph
1015.2mb 65f 65f
5:48 2 3 mph 1015.1mb 65f 65f
5:42 2
mph
1015mb 65f 65f
5:36 3
mph
1014.9mb 65f 65f
5:30 3
mph
1014.9mb 65f 65f
5:24 2 3 mph 1014.8mb 65f 65f
5:18 2
mph
1014.7mb 65f 65f
5:12 2 3 mph 1014.7mb 65f 65f
5:06 2 3 mph 1014.7mb 65f 65f
5:00 2 3 mph 1014.6mb 65f 65f
4:54 2
mph
1014.6mb 65f 65f
4:48 2
mph
1014.5mb 65f 65f
4:42 2 3 mph 1014.5mb 65f 65f
4:36 2 3 mph 1014.5mb 65f 65f
4:30 3
mph
1014.5mb 64f 65f
4:24 3 5 mph 1014.5mb 64f 65f
4:18 3 5 mph 1014.4mb 64f 65f
4:12 2 3 mph 1014.4mb 64f 65f
4:06 3
mph
1014.4mb 64f 65f
4:00 3
mph
1014.5mb 63f 65f
3:54 3 5 mph 1014.5mb 63f 65f
3:48 3 5 mph 1014.5mb 63f 65f
3:42 3 6 mph 1014.5mb 63f 65f
3:36 5 6 mph 1014.5mb 63f 65f
3:30 5 6 mph 1014.5mb 63f 65f
3:24 5 6 mph 1014.4mb 63f 65f
3:18 5 6 mph 1014.4mb 63f 65f
3:12 3 6 mph 1014.4mb 62f 65f
3:06 5 6 mph 1014.4mb 62f 65f
3:00 5 6 mph 1014.4mb 62f 65f
2:54 5 6 mph 1014.4mb 62f 65f
2:48 5 6 mph 1014.4mb 62f 65f
2:42 3 6 mph 1014.5mb 62f 65f
2:36 3 5 mph 1014.5mb 62f 65f
2:30 3 5 mph 1014.5mb 62f 65f
2:24 3 6 mph 1014.6mb 63f 65f
2:18 5 6 mph 1014.6mb 63f 65f
2:12 3 5 mph 1014.5mb 63f 65f
2:06 5
mph
1014.5mb 64f 65f
2:00 3 6 mph 1014.5mb 64f 64f
1:54 5 6 mph 1014.5mb 65f 64f
1:48 5 6 mph 1014.4mb 65f 64f
1:42 5
mph
1014.4mb 65f 64f
1:36 3 5 mph 1014.4mb 65f 64f
1:30 3
mph
1014.5mb 65f 64f
1:24 3 5 mph 1014.5mb 65f 64f
1:18 3 5 mph 1014.5mb 66f 64f
1:12 3 5 mph 1014.5mb 66f 64f
1:06 5
mph
1014.5mb 66f 64f
1:00 5
mph
1014.5mb 66f 64f
12:54 3 5 mph 1014.5mb 66f 64f
12:48 3 5 mph 1014.4mb 66f 64f
12:42 5
mph
1014.4mb 67f 64f
12:36 3
mph
1014.4mb 67f 64f
12:30 3 5 mph 1014.4mb 68f 64f
12:24 5
mph
1014.5mb 68f 64f
12:18 3 5 mph 1014.5mb 68f 64f
12:12 5
mph
1014.4mb 68f 64f
12:06 5
mph
1014.4mb 68f 64f
12:00 5
mph
1014.5mb 68f 64f
Seg 08/22 11:54 3 5 mph 1014.4mb 68f 64f
11:48 5 6 mph 1014.4mb 68f 64f
11:42 5 6 mph 1014.5mb 68f -
11:36 5 6 mph 1014.4mb 68f -
11:30 3 5 mph 1014.4mb 68f 64f
11:24 3 5 mph 1014.4mb 68f 64f
11:18 3
mph
1014.3mb 68f 64f
11:12 2
mph
1014.4mb 67f 64f
11:06  -  1 mph 1014.3mb 67f 64f
11:00 1 2 mph 1014.2mb 67f 64f
10:54 1 2 mph 1014.2mb 67f 64f
10:48 2 3 mph 1014.1mb 67f 64f
10:42 2 5 mph 1014mb - -
10:36 2 5 mph 1013.9mb - -
10:30 3 5 mph 1013.9mb 67f 64f
10:24 2 5 mph 1013.9mb 67f 64f
10:18 5
mph
1013.8mb 66f 64f
10:12 3 5 mph 1013.7mb 66f 64f
10:06 5
mph
1013.7mb 66f 64f
10:00 3
mph
1013.7mb 66f 64f
9:54 2 3 mph 1013.7mb 66f 64f
9:48 2 3 mph 1013.7mb 66f 64f
9:42 2 3 mph 1013.7mb 66f 64f
9:36 3 6 mph 1013.6mb 66f 65f
9:30 5 6 mph 1013.6mb 67f 65f
9:24 6 7 mph 1013.5mb 67f 65f
9:18 6 7 mph 1013.4mb 67f 65f
9:12 5 6 mph 1013.5mb 67f 65f
9:06 6 7 mph 1013.5mb 66f 65f
9:00 7 8 mph 1013.4mb 66f 65f
8:54 7 9 mph 1013.3mb 67f 65f
8:48 8
mph
1013.2mb 67f 65f
8:42 7 9 mph 1013.2mb 67f 65f
8:36 7 8 mph 1013.1mb 67f 65f
8:30 7 9 mph 1013.1mb 67f 65f
8:24 8 10 mph 1013.1mb 67f 65f
8:18 9 11 mph 1013.1mb 67f 65f
8:12 8 11 mph 1013mb 67f 65f
8:06 9 10 mph 1013mb 67f 65f
8:00 10 13 mph 1013mb 67f 65f